Time;durP1;ratioP1;P1;durP2;ratioP2;P2;SDS_P1;SDS_P2;PMS_P1;PMS_P2;Temp;Humidity;BMP_temperature;BMP_pressure;BME280_temperature;BME280_humidity;BME280_pressure;Samples;Min_cycle;Max_cycle;Signal;HPM_P1;HPM_P2
2023/08/13 00:02:21;;;;;;;5.13;4.15;;;;;;;19.28;100.00;96182.09;5054706;28;24448;-75
2023/08/13 00:04:47;;;;;;;5.07;3.70;;;;;;;19.33;100.00;96184.28;5050022;28;24442;-75
2023/08/13 00:07:14;;;;;;;8.05;6.30;;;;;;;19.38;100.00;96187.31;5053267;28;24424;-75
2023/08/13 00:09:41;;;;;;;7.63;5.55;;;;;;;19.31;100.00;96183.59;5053567;28;24443;-75
2023/08/13 00:12:09;;;;;;;6.32;4.60;;;;;;;19.30;100.00;96187.19;5053495;28;24442;-75
2023/08/13 00:14:35;;;;;;;8.10;4.85;;;;;;;19.21;100.00;96177.53;5053510;28;24438;-75
2023/08/13 00:17:02;;;;;;;4.57;4.10;;;;;;;19.13;100.00;96187.88;5053087;28;24494;-75
2023/08/13 00:19:28;;;;;;;11.63;4.55;;;;;;;19.25;100.00;96184.97;5053333;28;24531;-75
2023/08/13 00:21:55;;;;;;;4.38;3.90;;;;;;;19.31;100.00;96187.03;5053435;28;24447;-75
2023/08/13 00:24:22;;;;;;;5.55;3.85;;;;;;;19.28;100.00;96186.47;5053472;28;24439;-75
2023/08/13 00:26:48;;;;;;;7.80;4.15;;;;;;;19.16;100.00;96187.59;5053415;28;24423;-77
2023/08/13 00:29:16;;;;;;;4.85;3.85;;;;;;;19.07;100.00;96184.84;5052384;28;24438;-76
2023/08/13 00:31:42;;;;;;;3.83;3.47;;;;;;;19.13;100.00;96188.69;5052396;28;24459;-75
2023/08/13 00:34:09;;;;;;;6.25;3.78;;;;;;;19.10;100.00;96189.00;5052846;28;24435;-76
2023/08/13 00:36:35;;;;;;;3.58;3.10;;;;;;;19.10;100.00;96179.31;5052660;28;24450;-77
2023/08/13 00:39:01;;;;;;;4.28;3.70;;;;;;;19.01;100.00;96179.31;5052466;28;24462;-77
2023/08/13 00:41:29;;;;;;;4.78;3.65;;;;;;;18.93;100.00;96176.56;5052528;28;24522;-75
2023/08/13 00:43:56;;;;;;;5.73;3.80;;;;;;;18.90;100.00;96182.06;5052797;28;24443;-76
2023/08/13 00:46:24;;;;;;;8.23;3.70;;;;;;;18.85;100.00;96185.13;5052297;28;24443;-76
2023/08/13 00:48:59;;;;;;;5.30;4.18;;;;;;;18.79;100.00;96175.97;5052329;28;24450;-76
2023/08/13 00:51:27;;;;;;;9.48;4.20;;;;;;;18.69;100.00;96180.38;5052092;28;24451;-76
2023/08/13 00:53:54;;;;;;;7.83;4.23;;;;;;;18.69;100.00;96172.50;5052179;28;24435;-76
2023/08/13 00:56:21;;;;;;;8.38;4.00;;;;;;;18.65;100.00;96175.53;5052198;28;24799;-76
2023/08/13 00:58:48;;;;;;;7.30;4.07;;;;;;;18.59;100.00;96169.88;5052181;28;24442;-76
2023/08/13 01:01:15;;;;;;;4.78;3.65;;;;;;;18.65;100.00;96175.53;5052365;28;24431;-76
2023/08/13 01:03:42;;;;;;;4.38;3.97;;;;;;;18.67;100.00;96189.34;5052304;28;24442;-76
2023/08/13 01:06:14;;;;;;;5.93;4.03;;;;;;;18.69;100.00;96179.53;5051226;28;24458;-76
2023/08/13 01:08:50;;;;;;;7.10;3.85;;;;;;;18.69;100.00;96179.53;5052206;28;24441;-76
2023/08/13 01:11:28;;;;;;;12.20;4.88;;;;;;;18.58;100.00;96180.50;5052043;28;24450;-76
2023/08/13 01:14:04;;;;;;;5.10;3.40;;;;;;;18.67;100.00;96182.31;5052052;28;24447;-76
2023/08/13 01:16:32;;;;;;;4.55;3.70;;;;;;;18.77;100.00;96172.69;5051245;28;24538;-76
2023/08/13 01:19:00;;;;;;;4.30;3.70;;;;;;;18.80;100.00;96176.81;5051812;28;24442;-76
2023/08/13 01:21:26;;;;;;;14.75;3.75;;;;;;;18.70;100.00;96173.34;5051451;28;24462;-76
2023/08/13 01:23:54;;;;;;;6.93;3.17;;;;;;;18.68;100.00;96176.09;5051823;28;24442;-76
2023/08/13 01:26:27;;;;;;;5.60;3.38;;;;;;;18.62;100.00;96174.84;5051294;28;24811;-76
2023/08/13 01:29:00;;;;;;;26.42;4.22;;;;;;;18.49;100.00;96166.38;5051542;28;25021;-76
2023/08/13 01:31:31;;;;;;;12.02;3.40;;;;;;;18.43;100.00;96161.72;5051763;28;24545;-77
2023/08/13 01:33:59;;;;;;;9.60;3.00;;;;;;;18.52;100.00;96163.50;5051462;28;24443;-76
2023/08/13 01:36:26;;;;;;;8.35;3.67;;;;;;;18.38;100.00;96177.00;5050869;28;25001;-76
2023/08/13 01:38:58;;;;;;;7.93;3.40;;;;;;;18.42;100.00;96183.63;5051579;28;24443;-76
2023/08/13 01:41:25;;;;;;;13.68;3.65;;;;;;;18.38;100.00;96174.38;5051384;28;24443;-75
2023/08/13 01:43:51;;;;;;;5.30;3.30;;;;;;;18.41;100.00;96166.25;5051373;28;24432;-76
2023/08/13 01:46:17;;;;;;;3.00;2.80;;;;;;;18.43;100.00;96174.81;5051159;28;24443;-76
2023/08/13 01:48:44;;;;;;;5.22;2.80;;;;;;;18.51;100.00;96171.53;5050968;28;24993;-76
2023/08/13 01:51:10;;;;;;;20.13;3.30;;;;;;;18.41;100.00;96181.97;5051334;28;24451;-76
2023/08/13 01:53:37;;;;;;;5.60;2.92;;;;;;;18.32;100.00;96175.75;5051396;28;24485;-76
2023/08/13 01:56:05;;;;;;;8.93;2.95;;;;;;;18.33;100.00;96177.41;5051268;28;24443;-76
2023/08/13 01:58:31;;;;;;;4.22;3.05;;;;;;;18.35;100.00;96174.63;5050737;28;25027;-77
2023/08/13 02:00:57;;;;;;;9.18;3.28;;;;;;;18.28;100.00;96177.00;5051476;28;24442;-76
2023/08/13 02:03:24;;;;;;;5.47;2.90;;;;;;;18.29;100.00;96180.44;5050897;28;24443;-76
2023/08/13 02:05:50;;;;;;;9.30;3.00;;;;;;;18.22;100.00;96180.13;5051398;28;24443;-76
2023/08/13 02:08:17;;;;;;;12.52;3.40;;;;;;;18.18;100.00;96175.31;5050902;28;24435;-76
2023/08/13 02:10:43;;;;;;;9.88;3.10;;;;;;;18.17;100.00;96177.09;5050908;28;24462;-76
2023/08/13 02:13:12;;;;;;;3.97;3.10;;;;;;;18.25;100.00;96171.19;5050897;28;24458;-76
2023/08/13 02:15:38;;;;;;;3.25;2.83;;;;;;;18.33;100.00;96179.19;5050135;28;24990;-76
2023/08/13 02:18:05;;;;;;;3.22;2.92;;;;;;;18.34;100.00;96179.06;5049992;28;24493;-76
2023/08/13 02:20:32;;;;;;;3.95;2.80;;;;;;;18.35;100.00;96174.63;5050346;28;25037;-76
2023/08/13 02:22:58;;;;;;;3.40;2.93;;;;;;;18.30;100.00;96175.03;5050509;28;24435;-76
2023/08/13 02:25:24;;;;;;;6.78;3.17;;;;;;;18.31;100.00;96181.94;5050800;28;24437;-76
2023/08/13 02:27:51;;;;;;;4.65;2.95;;;;;;;18.36;100.00;96185.00;5050028;28;24447;-76
2023/08/13 02:30:19;;;;;;;5.60;2.80;;;;;;;18.32;100.00;96177.56;5049769;28;24427;-76
2023/08/13 02:32:45;;;;;;;4.30;2.40;;;;;;;18.29;100.00;96167.31;5050387;28;24990;-76
2023/08/13 02:35:12;;;;;;;4.75;2.58;;;;;;;18.35;100.00;96172.00;5050646;28;24442;-75
2023/08/13 02:37:38;;;;;;;2.92;2.40;;;;;;;18.35;100.00;96178.13;5050316;28;24439;-76
2023/08/13 02:40:06;;;;;;;3.03;2.40;;;;;;;18.40;100.00;96174.25;5050553;28;24438;-76
2023/08/13 02:42:33;;;;;;;4.13;2.75;;;;;;;18.31;100.00;96165.38;5050151;28;24558;-76
2023/08/13 02:44:59;;;;;;;2.80;2.22;;;;;;;18.41;100.00;96153.13;5050086;28;24472;-76
2023/08/13 02:47:27;;;;;;;3.72;3.08;;;;;;;18.37;100.00;96147.31;5050137;28;24446;-76
2023/08/13 02:49:54;;;;;;;5.43;2.95;;;;;;;18.35;100.00;96164.16;5050142;28;25012;-76
2023/08/13 02:52:20;;;;;;;4.68;2.90;;;;;;;18.35;100.00;96164.16;5050367;28;24447;-76
2023/08/13 02:54:47;;;;;;;2.90;2.58;;;;;;;18.35;100.00;96164.16;5049949;28;24427;-76
2023/08/13 02:57:13;;;;;;;3.20;2.60;;;;;;;18.41;100.00;96155.75;5049650;28;24469;-76
2023/08/13 02:59:39;;;;;;;4.00;2.80;;;;;;;18.41;100.00;96163.63;5049779;28;24451;-76
2023/08/13 03:02:06;;;;;;;4.20;2.80;;;;;;;18.30;100.00;96154.06;5050248;28;24442;-76
2023/08/13 03:04:34;;;;;;;3.00;2.70;;;;;;;18.25;100.00;96160.69;5049881;28;24803;-76
2023/08/13 03:07:00;;;;;;;2.58;2.38;;;;;;;18.28;100.00;96161.25;5049512;28;24463;-75
2023/08/13 03:09:26;;;;;;;2.20;2.00;;;;;;;18.31;100.00;96160.97;5050274;28;25017;-76
2023/08/13 03:11:53;;;;;;;2.97;2.45;;;;;;;18.24;100.00;96153.78;5050286;28;24459;-78
2023/08/13 03:14:19;;;;;;;3.65;2.28;;;;;;;18.31;100.00;96154.91;5049841;28;24981;-76
2023/08/13 03:16:46;;;;;;;3.08;2.00;;;;;;;18.32;100.00;96169.69;5049842;28;24439;-75
2023/08/13 03:19:12;;;;;;;2.17;1.98;;;;;;;18.27;100.00;96171.84;5049948;28;24446;-76
2023/08/13 03:21:40;;;;;;;2.93;2.13;;;;;;;18.22;100.00;96169.66;5050177;28;24528;-76
2023/08/13 03:24:07;;;;;;;2.75;1.98;;;;;;;18.17;100.00;96157.88;5049988;28;24435;-76
2023/08/13 03:26:34;;;;;;;2.60;2.08;;;;;;;18.22;100.00;96148.69;5049121;28;24490;-76
2023/08/13 03:29:00;;;;;;;2.85;2.05;;;;;;;18.12;100.00;96153.88;5050238;28;24444;-76
2023/08/13 03:31:26;;;;;;;2.55;2.00;;;;;;;18.05;100.00;96154.53;5049955;28;24451;-76
2023/08/13 03:33:53;;;;;;;2.30;2.10;;;;;;;17.92;100.00;96148.72;5049743;28;24997;-76
2023/08/13 03:36:19;;;;;;;3.15;2.17;;;;;;;17.84;100.00;96146.75;5049606;28;24476;-76
2023/08/13 03:38:47;;;;;;;3.03;2.05;;;;;;;17.93;100.00;96148.56;5049123;28;24985;-76
2023/08/13 03:41:14;;;;;;;1.85;1.73;;;;;;;18.02;100.00;96154.81;5051507;28;24510;-76
2023/08/13 03:43:40;;;;;;;2.30;1.88;;;;;;;18.07;100.00;96155.25;5054089;28;24443;-76
2023/08/13 03:46:06;;;;;;;2.22;1.90;;;;;;;17.95;100.00;96149.28;5053770;28;24446;-76
2023/08/13 03:48:33;;;;;;;1.95;1.60;;;;;;;18.04;100.00;96142.41;5062397;22;24476;-81
2023/08/13 03:51:00;;;;;;;2.67;2.00;;;;;;;18.00;100.00;96141.84;5036498;28;24466;-81
2023/08/13 03:53:26;;;;;;;2.10;1.88;;;;;;;18.09;100.00;96148.06;5036663;28;24443;-81
2023/08/13 03:55:54;;;;;;;3.17;1.80;;;;;;;18.17;100.00;96142.16;5036035;28;24542;-81
2023/08/13 03:58:21;;;;;;;2.33;1.75;;;;;;;18.22;100.00;96150.47;5043603;28;24442;-81
2023/08/13 04:00:47;;;;;;;2.92;1.90;;;;;;;18.21;100.00;96146.19;5057466;28;24430;-81
2023/08/13 04:03:14;;;;;;;2.53;1.80;;;;;;;18.24;100.00;96154.59;5057512;28;24434;-81
2023/08/13 04:05:40;;;;;;;2.33;1.95;;;;;;;18.25;100.00;96153.66;5056956;28;24438;-81
2023/08/13 04:08:07;;;;;;;2.63;1.95;;;;;;;18.19;100.00;96140.25;5056493;28;24447;-81
2023/08/13 04:10:33;;;;;;;2.88;2.15;;;;;;;18.11;100.00;96148.78;5056454;28;24431;-80
2023/08/13 04:13:01;;;;;;;2.58;1.90;;;;;;;18.14;100.00;96148.53;5056135;28;25009;-81
2023/08/13 04:15:28;;;;;;;2.17;1.98;;;;;;;18.16;100.00;96164.09;5055817;28;24442;-80
2023/08/13 04:17:54;;;;;;;4.28;1.80;;;;;;;18.18;100.00;96157.78;5056066;28;24446;-81
2023/08/13 04:20:21;;;;;;;3.55;2.28;;;;;;;18.16;100.00;96153.63;5056133;28;24442;-81
2023/08/13 04:22:47;;;;;;;14.85;2.88;;;;;;;18.02;100.00;96150.41;5056383;28;24435;-81
2023/08/13 04:25:14;;;;;;;2.85;2.10;;;;;;;18.03;100.00;96157.31;5056176;28;24443;-81
2023/08/13 04:27:40;;;;;;;3.25;2.35;;;;;;;18.12;100.00;96156.50;5055309;28;24439;-81
2023/08/13 04:30:09;;;;;;;3.00;1.90;;;;;;;18.16;100.00;96161.47;5055854;28;24431;-80
2023/08/13 04:32:38;;;;;;;3.50;2.15;;;;;;;18.17;100.00;96166.59;5056067;28;24447;-81
2023/08/13 04:35:05;;;;;;;2.90;2.15;;;;;;;18.21;100.00;96175.03;5056259;28;24481;-81
2023/08/13 04:37:32;;;;;;;3.63;2.37;;;;;;;18.19;100.00;96167.28;5054814;28;24443;-81
2023/08/13 04:39:58;;;;;;;2.40;1.92;;;;;;;18.25;100.00;96158.06;5055645;28;24435;-80
2023/08/13 04:42:25;;;;;;;2.55;2.10;;;;;;;18.24;100.00;96156.38;5055548;28;24434;-81
2023/08/13 04:44:51;;;;;;;5.82;2.58;;;;;;;18.17;100.00;96152.66;5064103;28;24434;-80
2023/08/13 04:47:19;;;;;;;7.70;2.30;;;;;;;18.11;100.00;96160.09;5058076;28;24446;-81
2023/08/13 04:49:45;;;;;;;2.22;2.00;;;;;;;18.13;100.00;96157.31;5057546;28;25129;-80
2023/08/13 04:52:12;;;;;;;3.38;2.40;;;;;;;18.17;100.00;96156.13;5056303;28;24990;-80
2023/08/13 04:54:38;;;;;;;5.25;2.40;;;;;;;18.21;100.00;96154.06;5057304;28;24726;-80
2023/08/13 04:57:05;;;;;;;5.20;2.22;;;;;;;18.10;100.00;96153.19;5056609;28;24439;-80
2023/08/13 04:59:32;;;;;;;3.50;1.80;;;;;;;18.08;100.00;96154.28;5056382;28;25073;-80
2023/08/13 05:01:58;;;;;;;5.22;1.80;;;;;;;18.07;100.00;96150.84;5057526;28;24997;-80
2023/08/13 05:04:26;;;;;;;3.58;1.60;;;;;;;18.07;100.00;96150.84;5056013;28;24443;-81
2023/08/13 05:06:52;;;;;;;2.95;1.67;;;;;;;18.03;100.00;96162.56;5055420;28;24447;-80
2023/08/13 05:09:19;;;;;;;5.53;2.10;;;;;;;18.08;100.00;96160.34;5055187;28;24450;-80
2023/08/13 05:11:45;;;;;;;1.60;1.50;;;;;;;18.16;100.00;96148.38;5056070;28;24451;-80
2023/08/13 05:14:12;;;;;;;3.50;2.05;;;;;;;18.19;100.00;96142.88;5055626;28;24432;-80
2023/08/13 05:16:38;;;;;;;3.35;1.95;;;;;;;18.33;100.00;96151.19;5055268;28;24446;-80
2023/08/13 05:19:05;;;;;;;1.90;1.70;;;;;;;18.30;100.00;96148.81;5054919;28;24443;-80
2023/08/13 05:21:33;;;;;;;2.67;2.08;;;;;;;18.41;100.00;96150.50;5054555;28;24446;-80
2023/08/13 05:23:59;;;;;;;3.72;2.10;;;;;;;18.28;100.00;96152.53;5055227;28;25013;-80
2023/08/13 05:26:26;;;;;;;7.95;2.00;;;;;;;18.17;100.00;96160.50;5061431;28;24436;-81
2023/08/13 05:28:52;;;;;;;3.13;1.63;;;;;;;18.20;100.00;96166.31;5065846;28;24450;-81
2023/08/13 05:31:19;;;;;;;2.67;1.77;;;;;;;18.11;100.00;96170.56;5056781;28;24846;-78
2023/08/13 05:33:45;;;;;;;2.60;1.80;;;;;;;17.96;100.00;96161.41;5054457;28;24803;-79
2023/08/13 05:36:12;;;;;;;2.10;1.83;;;;;;;17.98;100.00;96154.25;5054403;28;24957;-78
2023/08/13 05:38:39;;;;;;;7.03;1.90;;;;;;;17.92;100.00;96154.78;5054013;28;24443;-79
2023/08/13 05:41:06;;;;;;;4.35;1.73;;;;;;;18.00;100.00;96164.59;5046380;28;24497;-77
2023/08/13 05:43:32;;;;;;;2.13;1.63;;;;;;;17.99;100.00;96160.34;5048497;28;24926;-78
2023/08/13 05:45:59;;;;;;;5.17;1.80;;;;;;;18.05;100.00;96172.91;5053324;28;24999;-78
2023/08/13 05:48:25;;;;;;;2.08;1.40;;;;;;;18.01;100.00;96180.19;5052579;28;24448;-78
2023/08/13 05:50:52;;;;;;;3.28;1.77;;;;;;;18.06;100.00;96172.78;5054830;28;24446;-78
2023/08/13 05:53:18;;;;;;;2.17;1.70;;;;;;;18.12;100.00;96171.41;5053817;28;24527;-79
2023/08/13 05:55:46;;;;;;;3.65;1.90;;;;;;;18.15;100.00;96168.53;5053776;28;24853;-78
2023/08/13 05:58:12;;;;;;;2.75;1.90;;;;;;;18.22;100.00;96168.81;5053127;28;24449;-78
2023/08/13 06:00:40;;;;;;;1.95;1.50;;;;;;;18.23;100.00;96167.84;5053463;28;24430;-78
2023/08/13 06:03:07;;;;;;;3.22;1.77;;;;;;;18.50;100.00;96160.22;5050846;28;24443;-78
2023/08/13 06:05:33;;;;;;;5.13;1.55;;;;;;;18.42;100.00;96167.91;5051628;28;24538;-78
2023/08/13 06:08:00;;;;;;;3.17;1.67;;;;;;;18.38;100.00;96162.09;5050931;28;24443;-79
2023/08/13 06:10:26;;;;;;;4.65;1.73;;;;;;;18.34;100.00;96159.88;5047999;28;24431;-78
2023/08/13 06:12:54;;;;;;;5.13;2.08;;;;;;;18.22;100.00;96174.06;5051193;28;24474;-78
2023/08/13 06:15:21;;;;;;;4.80;1.90;;;;;;;18.09;100.00;96172.47;5051221;28;24440;-78
2023/08/13 06:17:48;;;;;;;4.25;2.08;;;;;;;18.04;100.00;96177.31;5051703;28;24455;-78
2023/08/13 06:20:17;;;;;;;2.30;2.00;;;;;;;18.11;100.00;96178.44;5052460;28;25000;-78
2023/08/13 06:22:43;;;;;;;2.28;1.75;;;;;;;18.12;100.00;96174.84;5052562;28;24795;-78
2023/08/13 06:25:10;;;;;;;2.15;1.83;;;;;;;17.99;100.00;96171.66;5052756;28;24442;-78
2023/08/13 06:27:36;;;;;;;3.15;2.10;;;;;;;18.05;100.00;96176.34;5052654;28;25012;-78
2023/08/13 06:30:05;;;;;;;2.33;1.58;;;;;;;18.14;100.00;96179.97;5052196;28;24814;-78
2023/08/13 06:32:32;;;;;;;2.03;1.70;;;;;;;18.08;100.00;96180.50;5052267;28;24443;-78
2023/08/13 06:34:58;;;;;;;2.70;2.00;;;;;;;18.12;100.00;96172.22;5051669;28;24454;-78
2023/08/13 06:37:25;;;;;;;3.45;2.00;;;;;;;18.25;100.00;96176.44;5052014;28;24534;-78
2023/08/13 06:39:51;;;;;;;2.60;1.92;;;;;;;18.35;100.00;96172.88;5052139;28;24446;-78
2023/08/13 06:42:18;;;;;;;3.08;2.20;;;;;;;18.45;100.00;96183.38;5051455;28;24432;-79
2023/08/13 06:44:44;;;;;;;2.53;2.00;;;;;;;18.54;100.00;96177.31;5052367;28;24442;-79
2023/08/13 06:47:12;;;;;;;3.13;1.80;;;;;;;18.62;100.00;96174.03;5052888;28;24431;-79
2023/08/13 06:49:39;;;;;;;1.95;1.73;;;;;;;18.71;100.00;96178.47;5052598;28;24997;-78
2023/08/13 06:52:06;;;;;;;2.95;1.92;;;;;;;18.80;100.00;96184.69;5052394;28;24838;-79
2023/08/13 06:54:32;;;;;;;2.35;2.08;;;;;;;18.79;100.00;96180.41;5052646;28;24505;-79
2023/08/13 06:56:59;;;;;;;2.97;1.98;;;;;;;18.87;100.00;96183.16;5052709;28;24497;-78
2023/08/13 06:59:25;;;;;;;4.75;2.05;;;;;;;18.96;100.00;96171.88;5054830;28;24470;-78
2023/08/13 07:01:52;;;;;;;2.90;1.90;;;;;;;19.02;100.00;96175.72;5051970;28;24803;-78
2023/08/13 07:04:20;;;;;;;2.38;2.17;;;;;;;19.02;100.00;96184.44;5052301;28;25005;-78
2023/08/13 07:06:46;;;;;;;4.10;2.40;;;;;;;18.94;100.00;96186.91;5051455;28;24810;-77
2023/08/13 07:09:13;;;;;;;7.93;2.60;;;;;;;18.90;100.00;96180.28;5051784;28;24802;-77
2023/08/13 07:11:39;;;;;;;5.00;2.70;;;;;;;18.92;100.00;96185.41;5051652;28;24787;-77
2023/08/13 07:14:06;;;;;;;3.50;2.28;;;;;;;18.94;100.00;96178.22;5051688;28;24451;-77
2023/08/13 07:16:32;;;;;;;5.00;2.35;;;;;;;18.94;100.00;96188.72;5051548;28;24439;-78
2023/08/13 07:18:59;;;;;;;2.70;2.10;;;;;;;18.93;100.00;96176.56;5051648;28;24423;-78
2023/08/13 07:21:27;;;;;;;6.00;2.30;;;;;;;19.08;100.00;96177.81;5051431;28;24514;-78
2023/08/13 07:23:53;;;;;;;3.00;2.33;;;;;;;19.17;100.00;96176.13;5051878;28;24463;-79
2023/08/13 07:26:20;;;;;;;2.83;1.85;;;;;;;19.22;100.00;96168.69;5051581;28;24446;-78
2023/08/13 07:28:46;;;;;;;4.13;2.08;;;;;;;19.23;100.00;96165.91;5051961;28;24446;-79
2023/08/13 07:31:13;;;;;;;3.45;2.10;;;;;;;19.29;100.00;96169.78;5052148;28;24431;-80
2023/08/13 07:33:39;;;;;;;2.50;2.00;;;;;;;19.37;100.00;96177.78;5051751;28;24462;-77
2023/08/13 07:36:06;;;;;;;2.75;2.25;;;;;;;19.39;100.00;96181.06;5059917;28;24526;-78
2023/08/13 07:38:34;;;;;;;2.80;2.13;;;;;;;19.27;100.00;96183.03;5059924;28;24445;-79
2023/08/13 07:41:03;;;;;;;5.68;1.88;;;;;;;19.33;100.00;96176.41;5059822;28;24638;-79
2023/08/13 07:43:29;;;;;;;3.15;2.17;;;;;;;19.37;100.00;96183.03;5065433;28;24490;-79
2023/08/13 07:45:56;;;;;;;2.63;1.92;;;;;;;19.32;100.00;96185.25;5067415;28;24440;-80
2023/08/13 07:48:22;;;;;;;3.33;2.00;;;;;;;19.29;100.00;96188.16;5064768;28;24446;-79
2023/08/13 07:50:50;;;;;;;4.50;1.93;;;;;;;19.47;100.00;96181.22;5063928;28;24442;-78
2023/08/13 07:53:16;;;;;;;4.70;1.80;;;;;;;19.56;100.00;96184.78;5056741;28;24523;-80
2023/08/13 07:55:46;;;;;;;3.30;2.15;;;;;;;19.39;100.00;96188.97;5058418;28;25198;-80
2023/08/13 07:58:14;;;;;;;3.15;2.30;;;;;;;19.44;100.00;96170.16;5058313;28;24427;-80
2023/08/13 08:00:41;;;;;;;3.90;2.03;;;;;;;19.35;100.00;96177.06;5057179;28;24431;-80
2023/08/13 08:03:08;;;;;;;2.80;2.00;;;;;;;19.44;100.00;96189.38;5057618;28;24419;-80
2023/08/13 08:05:35;;;;;;;2.72;1.95;;;;;;;19.42;100.00;96175.53;5055137;28;24502;-80
2023/08/13 08:08:02;;;;;;;3.90;1.80;;;;;;;19.40;100.00;96182.75;5055268;28;24810;-81
2023/08/13 08:10:29;;;;;;;2.92;2.13;;;;;;;19.47;100.00;96175.97;5055465;28;24802;-80
2023/08/13 08:12:57;;;;;;;2.67;2.13;;;;;;;19.57;100.00;96170.69;5034960;28;25160;-80
2023/08/13 08:15:23;;;;;;;4.35;2.58;;;;;;;19.49;100.00;96173.19;5035150;28;24962;-80
2023/08/13 08:17:49;;;;;;;3.65;2.20;;;;;;;19.61;100.00;96158.09;5034488;28;24515;-81
2023/08/13 08:20:16;;;;;;;3.93;2.27;;;;;;;19.79;100.00;96164.28;5049159;28;24442;-80
2023/08/13 08:22:42;;;;;;;2.95;1.90;;;;;;;20.09;100.00;96170.25;5054551;28;24996;-81
2023/08/13 08:25:10;;;;;;;2.20;1.50;;;;;;;20.34;100.00;96171.41;5055216;28;24779;-81
2023/08/13 08:27:37;;;;;;;2.65;1.80;;;;;;;20.55;100.00;96166.75;5056813;28;24862;-81
2023/08/13 08:30:06;;;;;;;3.23;2.10;;;;;;;20.36;100.00;96169.44;5058653;28;24430;-80
2023/08/13 08:32:32;;;;;;;3.03;2.00;;;;;;;20.23;100.00;96175.88;5058567;28;24459;-81
2023/08/13 08:34:59;;;;;;;3.55;1.98;;;;;;;20.27;100.00;96181.66;5058832;28;24439;-81
2023/08/13 08:37:26;;;;;;;3.35;1.90;;;;;;;20.35;100.00;96188.81;5058143;28;24509;-81
2023/08/13 08:39:52;;;;;;;3.38;1.85;;;;;;;20.24;100.00;96185.41;5058487;28;24435;-81
2023/08/13 08:42:20;;;;;;;3.65;2.05;;;;;;;20.05;100.00;96193.38;5058248;28;24854;-81
2023/08/13 08:44:46;;;;;;;4.40;1.70;;;;;;;19.90;100.00;96184.31;5059143;28;24525;-81
2023/08/13 08:47:15;;;;;;;2.97;2.20;;;;;;;19.96;100.00;96187.19;5057987;28;25010;-81
2023/08/13 08:49:45;;;;;;;2.47;1.70;;;;;;;20.12;100.00;96183.94;5056238;28;24447;-82
2023/08/13 08:52:13;;;;;;;2.13;1.60;;;;;;;20.09;100.00;96176.34;5063649;28;24446;-81
2023/08/13 08:54:40;;;;;;;2.00;1.48;;;;;;;20.22;100.00;96174.22;5062385;28;24455;-81
2023/08/13 08:57:06;;;;;;;2.22;1.52;;;;;;;20.25;100.00;96179.19;5063187;28;24508;-82
2023/08/13 08:59:33;;;;;;;2.10;1.53;;;;;;;20.12;100.00;96180.50;5068868;28;24476;-81
2023/08/13 09:01:59;;;;;;;1.50;1.40;;;;;;;20.10;100.00;96169.28;5069478;28;24444;-81
2023/08/13 09:04:27;;;;;;;2.80;1.70;;;;;;;20.18;100.00;96167.59;5077183;28;24427;-79
2023/08/13 09:06:58;;;;;;;5.93;1.50;;;;;;;20.27;100.00;96160.63;5073419;28;24423;-81
2023/08/13 09:09:26;;;;;;;4.18;1.60;;;;;;;20.25;100.00;96165.22;5068102;28;24860;-80
2023/08/13 09:11:54;;;;;;;2.08;1.48;;;;;;;20.51;100.00;96168.00;5067068;28;25000;-79
2023/08/13 09:14:21;;;;;;;3.47;1.50;;;;;;;20.66;100.00;96156.00;5062215;28;24463;-80
2023/08/13 09:16:49;;;;;;;3.17;1.55;;;;;;;20.62;100.00;96159.09;5051752;28;24439;-77
2023/08/13 09:19:16;;;;;;;1.60;1.33;;;;;;;20.72;100.00;96158.00;5058459;28;24439;-80
2023/08/13 09:21:49;;;;;;;2.92;1.67;;;;;;;21.19;100.00;96141.16;5061475;28;24440;-81
2023/08/13 09:24:16;;;;;;;1.85;1.50;;;;;;;21.63;100.00;96147.25;5062638;28;24438;-81
2023/08/13 09:26:42;;;;;;;2.38;1.63;;;;;;;22.24;100.00;96140.16;5061833;28;24442;-80
2023/08/13 09:29:09;;;;;;;3.45;1.85;;;;;;;22.77;100.00;96146.91;5062064;28;25005;-80
2023/08/13 09:31:36;;;;;;;3.72;1.50;;;;;;;22.17;100.00;96149.69;5064680;28;25011;-80
2023/08/13 09:34:03;;;;;;;3.05;1.60;;;;;;;21.79;100.00;96143.06;5065117;28;24453;-81
2023/08/13 09:36:31;;;;;;;2.13;1.40;;;;;;;22.06;100.00;96136.75;5065894;28;24467;-82
2023/08/13 09:38:58;;;;;;;4.30;1.90;;;;;;;21.97;100.00;96130.63;5064132;28;24989;-80
2023/08/13 09:41:27;;;;;;;2.42;1.52;;;;;;;21.99;100.00;96126.88;5062876;28;24985;-80
2023/08/13 09:43:55;;;;;;;2.80;1.77;;;;;;;22.13;100.00;96137.78;5064142;28;24442;-81
2023/08/13 09:46:26;;;;;;;1.98;1.63;;;;;;;22.28;100.00;96130.13;5064297;28;24445;-80
2023/08/13 09:48:57;;;;;;;2.67;1.80;;;;;;;22.80;100.00;96128.09;5062722;28;24443;-83
2023/08/13 09:51:30;;;;;;;2.25;1.60;;;;;;;23.20;100.00;96115.91;5058030;28;24457;-82
2023/08/13 09:54:04;;;;;;;3.95;1.90;;;;;;;23.51;100.00;96113.44;5057681;28;24451;-78
2023/08/13 09:56:32;;;;;;;2.30;1.85;;;;;;;23.76;100.00;96106.25;5057249;28;24803;-81
2023/08/13 09:59:00;;;;;;;2.40;1.70;;;;;;;23.72;100.00;96118.19;5056403;28;24474;-82
2023/08/13 10:01:26;;;;;;;4.28;1.70;;;;;;;24.07;100.00;96122.22;5055302;28;24427;-80
2023/08/13 10:03:54;;;;;;;6.15;1.75;;;;;;;24.36;100.00;96118.94;5053764;28;24442;-79
2023/08/13 10:06:21;;;;;;;2.63;1.80;;;;;;;24.05;100.00;96123.38;5055416;28;24977;-81
2023/08/13 10:08:49;;;;;;;2.55;1.80;;;;;;;23.86;100.00;96116.66;5057188;28;24444;-81
2023/08/13 10:11:18;;;;;;;2.80;1.63;;;;;;;23.69;100.00;96115.06;5057594;28;24432;-80
2023/08/13 10:13:44;;;;;;;2.47;1.85;;;;;;;23.85;100.00;96115.84;5054196;28;24519;-80
2023/08/13 10:16:12;;;;;;;4.65;2.05;;;;;;;23.77;100.00;96115.03;5060937;28;24439;-80
2023/08/13 10:18:38;;;;;;;5.97;2.10;;;;;;;23.51;100.00;96117.84;5054924;28;24447;-80
2023/08/13 10:21:15;;;;;;;2.65;1.90;;;;;;;23.18;100.00;96117.91;5061245;28;24451;-79
2023/08/13 10:23:42;;;;;;;4.13;1.95;;;;;;;23.27;100.00;96114.28;5058836;28;24514;-81
2023/08/13 10:26:09;;;;;;;2.92;2.13;;;;;;;23.14;100.00;96116.59;5062847;28;24507;-81
2023/08/13 10:28:37;;;;;;;2.53;1.98;;;;;;;22.84;100.00;96124.16;5055556;28;24884;-80
2023/08/13 10:31:30;;;;;;;3.10;2.08;;;;;;;22.75;100.00;96117.19;5054420;28;25001;-79
2023/08/13 10:34:07;;;;;;;4.57;2.33;;;;;;;22.69;100.00;96123.13;5056937;28;24439;-80
2023/08/13 10:36:45;;;;;;;2.75;2.00;;;;;;;22.75;100.00;96119.84;5054282;28;24438;-80
2023/08/13 10:39:34;;;;;;;4.20;2.05;;;;;;;22.65;100.00;96117.34;5054448;28;24965;-80
2023/08/13 10:42:03;;;;;;;4.63;2.10;;;;;;;22.68;100.00;96119.66;5054034;28;24783;-80
2023/08/13 10:44:32;;;;;;;5.72;2.22;;;;;;;22.69;100.00;96117.84;5054291;28;24492;-80
2023/08/13 10:47:02;;;;;;;5.55;2.30;;;;;;;22.67;100.00;96114.56;5054352;28;24506;-80
2023/08/13 10:49:29;;;;;;;3.47;2.28;;;;;;;22.65;100.00;96108.59;5054355;28;24448;-80
2023/08/13 10:52:01;;;;;;;3.70;1.98;;;;;;;23.05;100.00;96107.00;5056868;28;24432;-81
2023/08/13 10:54:27;;;;;;;2.45;2.00;;;;;;;23.41;100.00;96108.31;5058207;28;24946;-79
2023/08/13 10:56:56;;;;;;;4.90;2.08;;;;;;;23.49;100.00;96107.47;5057432;28;24462;-81
2023/08/13 10:59:33;;;;;;;3.53;2.40;;;;;;;23.46;100.00;96114.91;5057525;28;24450;-80
2023/08/13 11:02:15;;;;;;;3.05;2.13;;;;;;;23.52;100.00;96111.59;5058212;28;24446;-79
2023/08/13 11:04:43;;;;;;;3.28;2.22;;;;;;;23.78;100.00;96109.56;5057512;28;24431;-79
2023/08/13 11:07:10;;;;;;;8.40;2.47;;;;;;;24.33;100.00;96111.34;5058820;28;24430;-81
2023/08/13 11:09:37;;;;;;;3.28;2.38;;;;;;;24.41;100.00;96115.81;5038864;28;25074;-79
2023/08/13 11:12:05;;;;;;;4.90;2.20;;;;;;;24.25;100.00;96114.03;5057749;28;25039;-79
2023/08/13 11:14:33;;;;;;;6.78;2.22;;;;;;;24.36;100.00;96116.31;5056094;28;24505;-81
2023/08/13 11:16:59;;;;;;;6.68;2.03;;;;;;;24.37;100.00;96119.78;5056948;28;24837;-81
2023/08/13 11:19:26;;;;;;;2.50;1.90;;;;;;;24.51;100.00;96112.91;5052231;28;24440;-79
2023/08/13 11:21:54;;;;;;;2.03;1.60;;;;;;;24.52;100.00;96118.06;5056966;28;24458;-79
2023/08/13 11:24:20;;;;;;;4.80;2.08;;;;;;;24.51;100.00;96120.84;5059421;28;24439;-79
2023/08/13 11:26:48;;;;;;;2.80;1.48;;;;;;;24.07;100.00;96116.94;5057999;28;24415;-81